Nevada, Ohio
Current Conditions -  °F | °C
As of 5:25 AM on Tuesday 27 Jan 2015 (Local Time) from KMNN Reporting Station
Haze Haze  
Wind Chill: -4°   Ceiling: 200
Heat Index: -4°   Visibility: 2mi
Dew Point: -10°   Wind: 0mph
Humidity: 76%   Direction: NA
Pressure: 29.95"   Gusts: NA
Location:  40.82°N, 83.13°W
Report Text: KMNN 271025Z AUTO 00000KT 2SM HZ OVC002 M20/M23 A2995 RMK AO2 T12001233 TSNO $
Loading
Personal Weather Stations






























Interactive Weather Map New forecast layout! Learn more

10-Day Weather Forecast

Advertisements
Track Severe Weather on mobile